Terminal Aerodrome Forecast
Issued by NWS Sterling, VA

Current Version | Previous Version | Graphics & Text | Print | Product List | Glossary On
Versions: 1 2 3 4 5 6 7 8 9 10 11 12 13 14 15 16 17 18 19 20 21 22
000
FTUS41 KLWX 240500
TAFIAD
TAF
KIAD 240539Z 2406/2512 00000KT 1/2SM RA FG OVC003
     FM240900 00000KT 2SM -RA BR OVC003
     FM241600 VRB03KT 1SM RA BR OVC008 WS020/19035KT
     FM242000 18005KT 1SM RA OVC008
     FM242300 18008KT 2SM SHRA OVC015
     FM250200 19012KT 2SM SHRA OVC020
     FM250500 25012KT 6SM -SHRA OVC040
     FM250800 28012KT P6SM OVC110=

USA.gov is the U.S. government's official web portal to all federal, state and local government web resources and services.